sensor_id;sensor_type;location;lat;lon;timestamp;P1;durP1;ratioP1;P2;durP2;ratioP2
10260;SDS011;5175;42.606;23.388;2022-08-01T00:01:57;2.60;;;2.40;;
10260;SDS011;5175;42.606;23.388;2022-08-01T00:04:24;3.13;;;2.83;;
10260;SDS011;5175;42.606;23.388;2022-08-01T00:06:52;3.35;;;2.70;;
10260;SDS011;5175;42.606;23.388;2022-08-01T00:09:19;2.53;;;2.33;;
10260;SDS011;5175;42.606;23.388;2022-08-01T00:11:45;4.30;;;2.40;;
10260;SDS011;5175;42.606;23.388;2022-08-01T00:14:12;3.97;;;2.50;;
10260;SDS011;5175;42.606;23.388;2022-08-01T00:16:39;2.40;;;2.20;;
10260;SDS011;5175;42.606;23.388;2022-08-01T00:19:05;3.25;;;2.55;;
10260;SDS011;5175;42.606;23.388;2022-08-01T00:21:32;2.45;;;2.25;;
10260;SDS011;5175;42.606;23.388;2022-08-01T00:24:00;3.20;;;2.30;;
10260;SDS011;5175;42.606;23.388;2022-08-01T00:26:27;2.95;;;2.47;;
10260;SDS011;5175;42.606;23.388;2022-08-01T00:28:54;3.75;;;2.30;;
10260;SDS011;5175;42.606;23.388;2022-08-01T00:31:21;3.20;;;2.47;;
10260;SDS011;5175;42.606;23.388;2022-08-01T00:33:47;2.53;;;2.13;;
10260;SDS011;5175;42.606;23.388;2022-08-01T00:36:14;5.15;;;4.75;;
10260;SDS011;5175;42.606;23.388;2022-08-01T00:38:41;5.80;;;5.40;;
10260;SDS011;5175;42.606;23.388;2022-08-01T00:41:09;6.22;;;5.72;;
10260;SDS011;5175;42.606;23.388;2022-08-01T00:43:36;6.22;;;5.72;;
10260;SDS011;5175;42.606;23.388;2022-08-01T00:46:03;6.18;;;5.68;;
10260;SDS011;5175;42.606;23.388;2022-08-01T00:48:29;7.53;;;6.93;;
10260;SDS011;5175;42.606;23.388;2022-08-01T00:50:56;7.60;;;6.95;;
10260;SDS011;5175;42.606;23.388;2022-08-01T00:53:23;9.32;;;7.25;;
10260;SDS011;5175;42.606;23.388;2022-08-01T00:55:51;7.47;;;6.87;;
10260;SDS011;5175;42.606;23.388;2022-08-01T00:58:20;7.10;;;6.50;;
10260;SDS011;5175;42.606;23.388;2022-08-01T01:00:47;7.53;;;6.97;;
10260;SDS011;5175;42.606;23.388;2022-08-01T01:03:14;7.53;;;6.93;;
10260;SDS011;5175;42.606;23.388;2022-08-01T01:05:44;7.82;;;7.22;;
10260;SDS011;5175;42.606;23.388;2022-08-01T01:08:22;8.30;;;6.20;;
10260;SDS011;5175;42.606;23.388;2022-08-01T01:10:54;6.78;;;6.20;;
10260;SDS011;5175;42.606;23.388;2022-08-01T01:13:26;7.38;;;6.53;;
10260;SDS011;5175;42.606;23.388;2022-08-01T01:15:59;7.25;;;6.63;;
10260;SDS011;5175;42.606;23.388;2022-08-01T01:18:30;6.07;;;5.57;;
10260;SDS011;5175;42.606;23.388;2022-08-01T01:21:02;6.22;;;5.63;;
10260;SDS011;5175;42.606;23.388;2022-08-01T01:23:46;6.75;;;6.15;;
10260;SDS011;5175;42.606;23.388;2022-08-01T01:26:26;6.13;;;5.63;;
10260;SDS011;5175;42.606;23.388;2022-08-01T01:29:03;6.80;;;6.20;;
10260;SDS011;5175;42.606;23.388;2022-08-01T01:31:33;5.75;;;5.25;;
10260;SDS011;5175;42.606;23.388;2022-08-01T01:34:06;6.75;;;6.15;;
10260;SDS011;5175;42.606;23.388;2022-08-01T01:36:35;6.43;;;5.82;;
10260;SDS011;5175;42.606;23.388;2022-08-01T01:39:04;6.63;;;6.03;;
10260;SDS011;5175;42.606;23.388;2022-08-01T01:41:33;6.10;;;5.60;;
10260;SDS011;5175;42.606;23.388;2022-08-01T01:44:04;4.97;;;4.57;;
10260;SDS011;5175;42.606;23.388;2022-08-01T01:46:31;5.10;;;4.70;;
10260;SDS011;5175;42.606;23.388;2022-08-01T01:48:59;4.53;;;4.13;;
10260;SDS011;5175;42.606;23.388;2022-08-01T01:51:28;5.28;;;3.92;;
10260;SDS011;5175;42.606;23.388;2022-08-01T01:53:56;4.40;;;4.05;;
10260;SDS011;5175;42.606;23.388;2022-08-01T01:56:24;3.33;;;3.13;;
10260;SDS011;5175;42.606;23.388;2022-08-01T01:58:54;4.15;;;3.53;;
10260;SDS011;5175;42.606;23.388;2022-08-01T02:01:25;3.92;;;3.15;;
10260;SDS011;5175;42.606;23.388;2022-08-01T02:03:55;3.60;;;3.10;;
10260;SDS011;5175;42.606;23.388;2022-08-01T02:06:23;3.03;;;2.70;;
10260;SDS011;5175;42.606;23.388;2022-08-01T02:08:52;2.80;;;2.60;;
10260;SDS011;5175;42.606;23.388;2022-08-01T02:11:20;3.10;;;2.67;;
10260;SDS011;5175;42.606;23.388;2022-08-01T02:13:49;2.70;;;2.50;;
10260;SDS011;5175;42.606;23.388;2022-08-01T02:16:20;3.35;;;2.30;;
10260;SDS011;5175;42.606;23.388;2022-08-01T02:18:52;4.78;;;2.30;;
10260;SDS011;5175;42.606;23.388;2022-08-01T02:21:20;2.93;;;2.63;;
10260;SDS011;5175;42.606;23.388;2022-08-01T02:23:52;3.58;;;2.55;;
10260;SDS011;5175;42.606;23.388;2022-08-01T02:26:22;3.73;;;2.60;;
10260;SDS011;5175;42.606;23.388;2022-08-01T02:28:51;4.18;;;2.70;;
10260;SDS011;5175;42.606;23.388;2022-08-01T02:31:22;2.92;;;2.63;;
10260;SDS011;5175;42.606;23.388;2022-08-01T02:33:52;3.00;;;2.80;;
10260;SDS011;5175;42.606;23.388;2022-08-01T02:36:23;2.70;;;2.50;;
10260;SDS011;5175;42.606;23.388;2022-08-01T02:38:52;3.05;;;2.60;;
10260;SDS011;5175;42.606;23.388;2022-08-01T02:41:22;2.85;;;2.33;;
10260;SDS011;5175;42.606;23.388;2022-08-01T02:43:52;2.90;;;2.60;;
10260;SDS011;5175;42.606;23.388;2022-08-01T02:46:27;2.53;;;2.33;;
10260;SDS011;5175;42.606;23.388;2022-08-01T02:49:01;2.50;;;2.28;;
10260;SDS011;5175;42.606;23.388;2022-08-01T02:51:30;3.93;;;2.47;;
10260;SDS011;5175;42.606;23.388;2022-08-01T02:53:58;3.25;;;2.53;;
10260;SDS011;5175;42.606;23.388;2022-08-01T02:56:27;2.45;;;2.25;;
10260;SDS011;5175;42.606;23.388;2022-08-01T02:59:01;4.13;;;2.40;;
10260;SDS011;5175;42.606;23.388;2022-08-01T03:01:31;4.07;;;2.23;;
10260;SDS011;5175;42.606;23.388;2022-08-01T03:04:01;3.40;;;2.50;;
10260;SDS011;5175;42.606;23.388;2022-08-01T03:06:30;2.60;;;2.40;;
10260;SDS011;5175;42.606;23.388;2022-08-01T03:08:58;2.70;;;2.50;;
10260;SDS011;5175;42.606;23.388;2022-08-01T03:11:28;2.70;;;2.43;;
10260;SDS011;5175;42.606;23.388;2022-08-01T03:13:57;3.28;;;2.30;;
10260;SDS011;5175;42.606;23.388;2022-08-01T03:16:27;2.60;;;2.40;;
10260;SDS011;5175;42.606;23.388;2022-08-01T03:18:56;2.88;;;2.60;;
10260;SDS011;5175;42.606;23.388;2022-08-01T03:21:26;2.70;;;2.50;;
10260;SDS011;5175;42.606;23.388;2022-08-01T03:23:56;2.80;;;2.60;;
10260;SDS011;5175;42.606;23.388;2022-08-01T03:26:27;3.60;;;2.50;;
10260;SDS011;5175;42.606;23.388;2022-08-01T03:28:57;2.72;;;2.53;;
10260;SDS011;5175;42.606;23.388;2022-08-01T03:31:28;3.80;;;2.10;;
10260;SDS011;5175;42.606;23.388;2022-08-01T03:33:56;2.92;;;2.60;;
10260;SDS011;5175;42.606;23.388;2022-08-01T03:36:25;2.80;;;2.20;;
10260;SDS011;5175;42.606;23.388;2022-08-01T03:38:57;5.33;;;2.30;;
10260;SDS011;5175;42.606;23.388;2022-08-01T03:41:26;3.17;;;2.60;;
10260;SDS011;5175;42.606;23.388;2022-08-01T03:43:57;2.87;;;2.50;;
10260;SDS011;5175;42.606;23.388;2022-08-01T03:46:28;3.47;;;2.80;;
10260;SDS011;5175;42.606;23.388;2022-08-01T03:49:03;5.07;;;2.50;;
10260;SDS011;5175;42.606;23.388;2022-08-01T03:51:38;5.50;;;2.87;;
10260;SDS011;5175;42.606;23.388;2022-08-01T03:54:05;2.87;;;2.60;;
10260;SDS011;5175;42.606;23.388;2022-08-01T03:56:34;4.85;;;2.88;;
10260;SDS011;5175;42.606;23.388;2022-08-01T03:59:03;3.58;;;2.47;;
10260;SDS011;5175;42.606;23.388;2022-08-01T04:01:31;7.37;;;2.83;;
10260;SDS011;5175;42.606;23.388;2022-08-01T04:03:59;3.83;;;2.50;;
10260;SDS011;5175;42.606;23.388;2022-08-01T04:06:26;4.03;;;2.50;;
10260;SDS011;5175;42.606;23.388;2022-08-01T04:08:55;4.45;;;2.50;;
10260;SDS011;5175;42.606;23.388;2022-08-01T04:14:27;2.75;;;2.55;;
10260;SDS011;5175;42.606;23.388;2022-08-01T04:16:54;2.85;;;2.55;;
10260;SDS011;5175;42.606;23.388;2022-08-01T04:19:21;2.72;;;2.53;;
10260;SDS011;5175;42.606;23.388;2022-08-01T04:21:48;3.00;;;2.70;;
10260;SDS011;5175;42.606;23.388;2022-08-01T04:24:17;4.45;;;2.60;;
10260;SDS011;5175;42.606;23.388;2022-08-01T04:26:46;2.92;;;2.72;;
10260;SDS011;5175;42.606;23.388;2022-08-01T04:29:14;2.72;;;2.50;;
10260;SDS011;5175;42.606;23.388;2022-08-01T04:31:44;4.93;;;2.90;;
10260;SDS011;5175;42.606;23.388;2022-08-01T04:34:13;5.15;;;3.03;;
10260;SDS011;5175;42.606;23.388;2022-08-01T04:36:42;2.88;;;2.67;;
10260;SDS011;5175;42.606;23.388;2022-08-01T04:39:11;3.03;;;2.75;;
10260;SDS011;5175;42.606;23.388;2022-08-01T04:41:43;3.10;;;2.63;;
10260;SDS011;5175;42.606;23.388;2022-08-01T04:44:12;4.68;;;2.92;;
10260;SDS011;5175;42.606;23.388;2022-08-01T04:46:39;6.22;;;2.70;;
10260;SDS011;5175;42.606;23.388;2022-08-01T04:49:07;6.68;;;3.03;;
10260;SDS011;5175;42.606;23.388;2022-08-01T04:51:36;8.55;;;3.25;;
10260;SDS011;5175;42.606;23.388;2022-08-01T04:54:16;3.53;;;3.20;;
10260;SDS011;5175;42.606;23.388;2022-08-01T04:56:44;3.83;;;3.08;;
10260;SDS011;5175;42.606;23.388;2022-08-01T04:59:11;4.07;;;2.90;;
10260;SDS011;5175;42.606;23.388;2022-08-01T05:01:55;4.68;;;3.25;;
10260;SDS011;5175;42.606;23.388;2022-08-01T05:04:21;5.63;;;3.70;;
10260;SDS011;5175;42.606;23.388;2022-08-01T05:06:48;4.78;;;3.10;;
10260;SDS011;5175;42.606;23.388;2022-08-01T05:09:15;4.60;;;2.83;;
10260;SDS011;5175;42.606;23.388;2022-08-01T05:11:44;4.53;;;2.97;;
10260;SDS011;5175;42.606;23.388;2022-08-01T05:14:10;3.20;;;2.83;;
10260;SDS011;5175;42.606;23.388;2022-08-01T05:16:37;3.53;;;3.22;;
10260;SDS011;5175;42.606;23.388;2022-08-01T05:19:04;7.88;;;3.53;;
10260;SDS011;5175;42.606;23.388;2022-08-01T05:21:33;3.47;;;3.10;;
10260;SDS011;5175;42.606;23.388;2022-08-01T05:24:00;4.32;;;3.20;;
10260;SDS011;5175;42.606;23.388;2022-08-01T05:26:27;5.75;;;3.15;;
10260;SDS011;5175;42.606;23.388;2022-08-01T05:28:55;4.90;;;3.30;;
10260;SDS011;5175;42.606;23.388;2022-08-01T05:31:22;4.00;;;3.17;;
10260;SDS011;5175;42.606;23.388;2022-08-01T05:33:49;5.55;;;3.60;;
10260;SDS011;5175;42.606;23.388;2022-08-01T05:36:16;4.53;;;3.25;;
10260;SDS011;5175;42.606;23.388;2022-08-01T05:38:42;5.30;;;3.10;;
10260;SDS011;5175;42.606;23.388;2022-08-01T05:41:09;4.78;;;3.60;;
10260;SDS011;5175;42.606;23.388;2022-08-01T05:43:36;19.38;;;6.53;;
10260;SDS011;5175;42.606;23.388;2022-08-01T05:46:04;10.65;;;5.28;;
10260;SDS011;5175;42.606;23.388;2022-08-01T05:48:31;6.22;;;4.10;;
10260;SDS011;5175;42.606;23.388;2022-08-01T05:50:58;5.85;;;4.60;;
10260;SDS011;5175;42.606;23.388;2022-08-01T05:53:25;6.18;;;4.50;;
10260;SDS011;5175;42.606;23.388;2022-08-01T05:55:52;5.85;;;5.00;;
10260;SDS011;5175;42.606;23.388;2022-08-01T05:58:18;7.05;;;5.22;;
10260;SDS011;5175;42.606;23.388;2022-08-01T06:00:45;7.90;;;4.78;;
10260;SDS011;5175;42.606;23.388;2022-08-01T06:03:13;7.10;;;5.03;;
10260;SDS011;5175;42.606;23.388;2022-08-01T06:05:40;7.43;;;4.93;;
10260;SDS011;5175;42.606;23.388;2022-08-01T06:08:07;5.85;;;4.90;;
10260;SDS011;5175;42.606;23.388;2022-08-01T06:10:34;5.50;;;4.10;;
10260;SDS011;5175;42.606;23.388;2022-08-01T06:13:00;5.78;;;3.60;;
10260;SDS011;5175;42.606;23.388;2022-08-01T06:15:28;8.38;;;5.13;;
10260;SDS011;5175;42.606;23.388;2022-08-01T06:17:55;4.60;;;4.13;;
10260;SDS011;5175;42.606;23.388;2022-08-01T06:20:23;4.47;;;2.83;;
10260;SDS011;5175;42.606;23.388;2022-08-01T06:22:50;3.60;;;2.50;;
10260;SDS011;5175;42.606;23.388;2022-08-01T06:25:17;3.47;;;2.72;;
10260;SDS011;5175;42.606;23.388;2022-08-01T06:27:44;3.28;;;2.50;;
10260;SDS011;5175;42.606;23.388;2022-08-01T06:30:11;3.55;;;2.42;;
10260;SDS011;5175;42.606;23.388;2022-08-01T06:32:38;3.80;;;2.80;;
10260;SDS011;5175;42.606;23.388;2022-08-01T06:35:05;4.18;;;2.67;;
10260;SDS011;5175;42.606;23.388;2022-08-01T06:37:34;4.38;;;2.75;;
10260;SDS011;5175;42.606;23.388;2022-08-01T06:40:01;3.53;;;2.75;;
10260;SDS011;5175;42.606;23.388;2022-08-01T06:42:28;3.35;;;2.30;;
10260;SDS011;5175;42.606;23.388;2022-08-01T06:44:56;4.03;;;2.92;;
10260;SDS011;5175;42.606;23.388;2022-08-01T06:47:23;2.95;;;2.65;;
10260;SDS011;5175;42.606;23.388;2022-08-01T06:49:50;3.55;;;2.55;;
10260;SDS011;5175;42.606;23.388;2022-08-01T06:52:17;7.72;;;3.40;;
10260;SDS011;5175;42.606;23.388;2022-08-01T06:54:45;3.40;;;2.50;;
10260;SDS011;5175;42.606;23.388;2022-08-01T06:57:12;4.57;;;2.88;;
10260;SDS011;5175;42.606;23.388;2022-08-01T06:59:38;2.67;;;2.47;;
10260;SDS011;5175;42.606;23.388;2022-08-01T07:02:05;3.05;;;2.70;;
10260;SDS011;5175;42.606;23.388;2022-08-01T07:04:33;4.70;;;2.72;;
10260;SDS011;5175;42.606;23.388;2022-08-01T07:07:00;4.55;;;2.70;;
10260;SDS011;5175;42.606;23.388;2022-08-01T07:09:27;8.10;;;2.90;;
10260;SDS011;5175;42.606;23.388;2022-08-01T07:11:55;6.38;;;3.10;;
10260;SDS011;5175;42.606;23.388;2022-08-01T07:14:22;5.45;;;2.60;;
10260;SDS011;5175;42.606;23.388;2022-08-01T07:16:50;4.75;;;2.60;;
10260;SDS011;5175;42.606;23.388;2022-08-01T07:19:17;3.88;;;2.97;;
10260;SDS011;5175;42.606;23.388;2022-08-01T07:21:44;4.30;;;3.22;;
10260;SDS011;5175;42.606;23.388;2022-08-01T07:24:12;3.22;;;2.92;;
10260;SDS011;5175;42.606;23.388;2022-08-01T07:26:40;4.07;;;3.00;;
10260;SDS011;5175;42.606;23.388;2022-08-01T07:29:08;4.82;;;3.10;;
10260;SDS011;5175;42.606;23.388;2022-08-01T07:31:35;3.90;;;2.75;;
10260;SDS011;5175;42.606;23.388;2022-08-01T07:34:02;5.05;;;2.83;;
10260;SDS011;5175;42.606;23.388;2022-08-01T07:36:29;4.93;;;2.95;;
10260;SDS011;5175;42.606;23.388;2022-08-01T07:38:56;3.92;;;3.00;;
10260;SDS011;5175;42.606;23.388;2022-08-01T07:41:23;3.88;;;2.90;;
10260;SDS011;5175;42.606;23.388;2022-08-01T07:43:50;3.40;;;3.10;;
10260;SDS011;5175;42.606;23.388;2022-08-01T07:46:18;4.13;;;2.90;;
10260;SDS011;5175;42.606;23.388;2022-08-01T07:48:45;3.33;;;2.58;;
10260;SDS011;5175;42.606;23.388;2022-08-01T07:51:12;5.05;;;2.78;;
10260;SDS011;5175;42.606;23.388;2022-08-01T07:53:39;4.28;;;2.95;;
10260;SDS011;5175;42.606;23.388;2022-08-01T07:56:05;4.10;;;2.90;;
10260;SDS011;5175;42.606;23.388;2022-08-01T07:58:32;3.25;;;2.75;;
10260;SDS011;5175;42.606;23.388;2022-08-01T08:00:59;4.45;;;2.70;;
10260;SDS011;5175;42.606;23.388;2022-08-01T08:03:28;4.72;;;2.50;;
10260;SDS011;5175;42.606;23.388;2022-08-01T08:05:54;3.75;;;2.90;;
10260;SDS011;5175;42.606;23.388;2022-08-01T08:08:22;2.75;;;2.35;;
10260;SDS011;5175;42.606;23.388;2022-08-01T08:10:49;4.38;;;2.50;;
10260;SDS011;5175;42.606;23.388;2022-08-01T08:13:15;5.55;;;2.63;;
10260;SDS011;5175;42.606;23.388;2022-08-01T08:15:43;3.85;;;2.60;;
10260;SDS011;5175;42.606;23.388;2022-08-01T08:18:10;4.13;;;2.90;;
10260;SDS011;5175;42.606;23.388;2022-08-01T08:20:38;5.32;;;2.75;;
10260;SDS011;5175;42.606;23.388;2022-08-01T08:23:05;3.20;;;2.90;;
10260;SDS011;5175;42.606;23.388;2022-08-01T08:25:52;2.75;;;2.42;;
10260;SDS011;5175;42.606;23.388;2022-08-01T08:28:19;3.97;;;2.70;;
10260;SDS011;5175;42.606;23.388;2022-08-01T08:30:46;3.13;;;2.78;;
10260;SDS011;5175;42.606;23.388;2022-08-01T08:33:13;3.03;;;2.72;;
10260;SDS011;5175;42.606;23.388;2022-08-01T08:35:41;2.92;;;2.60;;
10260;SDS011;5175;42.606;23.388;2022-08-01T08:38:08;4.40;;;2.72;;
10260;SDS011;5175;42.606;23.388;2022-08-01T08:40:35;4.28;;;2.70;;
10260;SDS011;5175;42.606;23.388;2022-08-01T08:43:03;6.18;;;2.90;;
10260;SDS011;5175;42.606;23.388;2022-08-01T08:45:31;3.13;;;2.50;;
10260;SDS011;5175;42.606;23.388;2022-08-01T08:47:58;3.00;;;2.70;;
10260;SDS011;5175;42.606;23.388;2022-08-01T08:50:25;6.85;;;2.92;;
10260;SDS011;5175;42.606;23.388;2022-08-01T08:52:55;4.15;;;2.63;;
10260;SDS011;5175;42.606;23.388;2022-08-01T08:55:24;3.08;;;2.65;;
10260;SDS011;5175;42.606;23.388;2022-08-01T08:57:53;2.95;;;2.20;;
10260;SDS011;5175;42.606;23.388;2022-08-01T09:00:21;4.57;;;3.13;;
10260;SDS011;5175;42.606;23.388;2022-08-01T09:02:48;4.90;;;3.17;;
10260;SDS011;5175;42.606;23.388;2022-08-01T09:05:15;3.75;;;2.30;;
10260;SDS011;5175;42.606;23.388;2022-08-01T09:07:43;2.63;;;2.42;;
10260;SDS011;5175;42.606;23.388;2022-08-01T09:10:12;2.50;;;2.30;;
10260;SDS011;5175;42.606;23.388;2022-08-01T09:12:38;3.78;;;2.53;;
10260;SDS011;5175;42.606;23.388;2022-08-01T09:15:07;4.10;;;2.17;;
10260;SDS011;5175;42.606;23.388;2022-08-01T09:17:40;3.50;;;2.53;;
10260;SDS011;5175;42.606;23.388;2022-08-01T09:20:07;5.82;;;2.63;;
10260;SDS011;5175;42.606;23.388;2022-08-01T09:22:48;2.75;;;2.20;;
10260;SDS011;5175;42.606;23.388;2022-08-01T09:25:17;4.18;;;2.58;;
10260;SDS011;5175;42.606;23.388;2022-08-01T09:27:43;3.45;;;2.60;;
10260;SDS011;5175;42.606;23.388;2022-08-01T09:30:11;3.28;;;2.55;;
10260;SDS011;5175;42.606;23.388;2022-08-01T09:32:55;2.60;;;2.40;;
10260;SDS011;5175;42.606;23.388;2022-08-01T09:35:23;2.85;;;2.50;;
10260;SDS011;5175;42.606;23.388;2022-08-01T09:37:51;4.85;;;2.50;;
10260;SDS011;5175;42.606;23.388;2022-08-01T09:40:19;3.63;;;2.72;;
10260;SDS011;5175;42.606;23.388;2022-08-01T09:42:46;2.53;;;2.28;;
10260;SDS011;5175;42.606;23.388;2022-08-01T09:45:31;6.13;;;2.60;;
10260;SDS011;5175;42.606;23.388;2022-08-01T09:47:58;6.10;;;2.53;;
10260;SDS011;5175;42.606;23.388;2022-08-01T09:50:38;3.35;;;2.42;;
10260;SDS011;5175;42.606;23.388;2022-08-01T09:53:06;4.15;;;2.40;;
10260;SDS011;5175;42.606;23.388;2022-08-01T09:55:35;2.85;;;2.65;;
10260;SDS011;5175;42.606;23.388;2022-08-01T09:58:02;3.00;;;2.50;;
10260;SDS011;5175;42.606;23.388;2022-08-01T10:00:30;2.55;;;2.35;;
10260;SDS011;5175;42.606;23.388;2022-08-01T10:02:57;3.03;;;2.50;;
10260;SDS011;5175;42.606;23.388;2022-08-01T10:05:31;5.30;;;2.47;;
10260;SDS011;5175;42.606;23.388;2022-08-01T10:07:59;3.65;;;2.58;;
10260;SDS011;5175;42.606;23.388;2022-08-01T10:10:27;4.50;;;2.65;;
10260;SDS011;5175;42.606;23.388;2022-08-01T10:12:55;6.40;;;3.30;;
10260;SDS011;5175;42.606;23.388;2022-08-01T10:15:23;3.85;;;2.70;;
10260;SDS011;5175;42.606;23.388;2022-08-01T10:17:52;3.65;;;2.53;;
10260;SDS011;5175;42.606;23.388;2022-08-01T10:20:21;3.58;;;2.50;;
10260;SDS011;5175;42.606;23.388;2022-08-01T10:22:49;4.10;;;2.67;;
10260;SDS011;5175;42.606;23.388;2022-08-01T10:25:19;2.65;;;2.45;;
10260;SDS011;5175;42.606;23.388;2022-08-01T10:27:48;3.30;;;2.45;;
10260;SDS011;5175;42.606;23.388;2022-08-01T10:30:18;4.63;;;2.42;;
10260;SDS011;5175;42.606;23.388;2022-08-01T10:32:45;4.72;;;2.40;;
10260;SDS011;5175;42.606;23.388;2022-08-01T10:35:13;4.43;;;2.80;;
10260;SDS011;5175;42.606;23.388;2022-08-01T10:37:42;3.05;;;2.58;;
10260;SDS011;5175;42.606;23.388;2022-08-01T10:40:11;2.78;;;2.55;;
10260;SDS011;5175;42.606;23.388;2022-08-01T10:42:39;3.42;;;2.15;;
10260;SDS011;5175;42.606;23.388;2022-08-01T10:45:06;5.30;;;2.53;;
10260;SDS011;5175;42.606;23.388;2022-08-01T10:47:37;2.75;;;2.55;;
10260;SDS011;5175;42.606;23.388;2022-08-01T10:50:07;3.67;;;2.80;;
10260;SDS011;5175;42.606;23.388;2022-08-01T10:52:50;2.83;;;2.40;;
10260;SDS011;5175;42.606;23.388;2022-08-01T10:55:30;2.75;;;2.47;;
10260;SDS011;5175;42.606;23.388;2022-08-01T10:58:12;2.58;;;2.38;;
10260;SDS011;5175;42.606;23.388;2022-08-01T11:00:39;4.15;;;2.50;;
10260;SDS011;5175;42.606;23.388;2022-08-01T11:03:07;2.50;;;2.30;;
10260;SDS011;5175;42.606;23.388;2022-08-01T11:05:34;2.33;;;2.08;;
10260;SDS011;5175;42.606;23.388;2022-08-01T11:08:03;2.47;;;2.20;;
10260;SDS011;5175;42.606;23.388;2022-08-01T11:10:33;3.55;;;2.20;;
10260;SDS011;5175;42.606;23.388;2022-08-01T11:13:03;2.40;;;2.20;;
10260;SDS011;5175;42.606;23.388;2022-08-01T11:15:32;2.75;;;2.40;;
10260;SDS011;5175;42.606;23.388;2022-08-01T11:18:00;5.05;;;2.50;;
10260;SDS011;5175;42.606;23.388;2022-08-01T11:20:30;4.63;;;2.40;;
10260;SDS011;5175;42.606;23.388;2022-08-01T11:28:35;3.22;;;2.45;;
10260;SDS011;5175;42.606;23.388;2022-08-01T11:33:52;3.97;;;2.15;;
10260;SDS011;5175;42.606;23.388;2022-08-01T11:36:20;3.25;;;2.45;;
10260;SDS011;5175;42.606;23.388;2022-08-01T11:38:48;3.20;;;2.28;;
10260;SDS011;5175;42.606;23.388;2022-08-01T11:41:35;3.15;;;2.38;;
10260;SDS011;5175;42.606;23.388;2022-08-01T11:44:03;4.10;;;2.47;;
10260;SDS011;5175;42.606;23.388;2022-08-01T11:49:31;4.03;;;2.50;;
10260;SDS011;5175;42.606;23.388;2022-08-01T11:52:03;3.03;;;2.42;;
10260;SDS011;5175;42.606;23.388;2022-08-01T11:54:32;3.45;;;2.47;;
10260;SDS011;5175;42.606;23.388;2022-08-01T11:57:01;3.90;;;2.30;;
10260;SDS011;5175;42.606;23.388;2022-08-01T11:59:34;4.28;;;2.20;;
10260;SDS011;5175;42.606;23.388;2022-08-01T12:02:02;2.50;;;2.30;;
10260;SDS011;5175;42.606;23.388;2022-08-01T12:04:43;2.75;;;2.20;;
10260;SDS011;5175;42.606;23.388;2022-08-01T12:07:13;3.45;;;2.42;;
10260;SDS011;5175;42.606;23.388;2022-08-01T12:09:40;3.97;;;2.50;;
10260;SDS011;5175;42.606;23.388;2022-08-01T12:12:07;2.47;;;2.28;;
10260;SDS011;5175;42.606;23.388;2022-08-01T12:14:33;3.15;;;2.50;;
10260;SDS011;5175;42.606;23.388;2022-08-01T12:17:00;2.67;;;2.47;;
10260;SDS011;5175;42.606;23.388;2022-08-01T12:19:27;3.63;;;2.60;;
10260;SDS011;5175;42.606;23.388;2022-08-01T12:22:08;2.75;;;2.55;;
10260;SDS011;5175;42.606;23.388;2022-08-01T12:24:38;2.80;;;2.60;;
10260;SDS011;5175;42.606;23.388;2022-08-01T12:27:06;2.80;;;2.60;;
10260;SDS011;5175;42.606;23.388;2022-08-01T12:29:34;3.15;;;2.80;;
10260;SDS011;5175;42.606;23.388;2022-08-01T12:32:01;3.97;;;2.85;;
10260;SDS011;5175;42.606;23.388;2022-08-01T12:34:29;2.60;;;2.40;;
10260;SDS011;5175;42.606;23.388;2022-08-01T12:36:59;2.58;;;2.38;;
10260;SDS011;5175;42.606;23.388;2022-08-01T12:39:31;3.75;;;2.70;;
10260;SDS011;5175;42.606;23.388;2022-08-01T12:42:00;4.72;;;2.60;;
10260;SDS011;5175;42.606;23.388;2022-08-01T12:44:27;4.15;;;2.72;;
10260;SDS011;5175;42.606;23.388;2022-08-01T12:46:55;3.40;;;2.67;;
10260;SDS011;5175;42.606;23.388;2022-08-01T12:49:23;3.75;;;2.70;;
10260;SDS011;5175;42.606;23.388;2022-08-01T12:51:50;5.15;;;2.90;;
10260;SDS011;5175;42.606;23.388;2022-08-01T12:54:17;3.38;;;2.60;;
10260;SDS011;5175;42.606;23.388;2022-08-01T12:56:44;3.75;;;2.75;;
10260;SDS011;5175;42.606;23.388;2022-08-01T12:59:22;3.08;;;2.78;;
10260;SDS011;5175;42.606;23.388;2022-08-01T13:01:54;3.58;;;2.67;;
10260;SDS011;5175;42.606;23.388;2022-08-01T13:04:21;3.63;;;2.60;;
10260;SDS011;5175;42.606;23.388;2022-08-01T13:06:51;3.08;;;2.65;;
10260;SDS011;5175;42.606;23.388;2022-08-01T13:09:19;2.70;;;2.50;;
10260;SDS011;5175;42.606;23.388;2022-08-01T13:11:46;2.72;;;2.53;;
10260;SDS011;5175;42.606;23.388;2022-08-01T13:14:27;3.70;;;2.60;;
10260;SDS011;5175;42.606;23.388;2022-08-01T13:16:55;3.03;;;2.50;;
10260;SDS011;5175;42.606;23.388;2022-08-01T13:22:09;2.80;;;2.58;;
10260;SDS011;5175;42.606;23.388;2022-08-01T13:24:36;3.75;;;2.42;;
10260;SDS011;5175;42.606;23.388;2022-08-01T13:27:04;2.75;;;2.47;;
10260;SDS011;5175;42.606;23.388;2022-08-01T13:29:33;2.60;;;2.40;;
10260;SDS011;5175;42.606;23.388;2022-08-01T13:32:11;3.17;;;2.53;;
10260;SDS011;5175;42.606;23.388;2022-08-01T13:34:39;2.90;;;2.60;;
10260;SDS011;5175;42.606;23.388;2022-08-01T13:37:06;2.60;;;2.40;;
10260;SDS011;5175;42.606;23.388;2022-08-01T13:39:33;3.88;;;2.20;;
10260;SDS011;5175;42.606;23.388;2022-08-01T13:42:06;4.20;;;2.45;;
10260;SDS011;5175;42.606;23.388;2022-08-01T13:44:34;3.85;;;2.30;;
10260;SDS011;5175;42.606;23.388;2022-08-01T13:47:01;3.72;;;2.40;;
10260;SDS011;5175;42.606;23.388;2022-08-01T13:49:29;2.42;;;2.22;;
10260;SDS011;5175;42.606;23.388;2022-08-01T13:51:55;2.88;;;2.40;;
10260;SDS011;5175;42.606;23.388;2022-08-01T13:54:22;3.95;;;2.30;;
10260;SDS011;5175;42.606;23.388;2022-08-01T13:56:49;2.95;;;2.53;;
10260;SDS011;5175;42.606;23.388;2022-08-01T13:59:17;7.03;;;2.70;;
10260;SDS011;5175;42.606;23.388;2022-08-01T14:01:45;2.53;;;2.33;;
10260;SDS011;5175;42.606;23.388;2022-08-01T14:04:12;2.47;;;2.28;;
10260;SDS011;5175;42.606;23.388;2022-08-01T14:06:39;3.88;;;2.60;;
10260;SDS011;5175;42.606;23.388;2022-08-01T14:09:06;2.60;;;2.38;;
10260;SDS011;5175;42.606;23.388;2022-08-01T14:11:33;3.80;;;2.45;;
10260;SDS011;5175;42.606;23.388;2022-08-01T14:14:00;2.83;;;2.40;;
10260;SDS011;5175;42.606;23.388;2022-08-01T14:16:27;2.92;;;2.45;;
10260;SDS011;5175;42.606;23.388;2022-08-01T14:18:55;3.03;;;2.40;;
10260;SDS011;5175;42.606;23.388;2022-08-01T14:21:22;2.50;;;2.30;;
10260;SDS011;5175;42.606;23.388;2022-08-01T14:23:48;2.50;;;2.22;;
10260;SDS011;5175;42.606;23.388;2022-08-01T14:26:15;3.10;;;2.40;;
10260;SDS011;5175;42.606;23.388;2022-08-01T14:28:42;3.70;;;2.33;;
10260;SDS011;5175;42.606;23.388;2022-08-01T14:31:09;3.97;;;2.22;;
10260;SDS011;5175;42.606;23.388;2022-08-01T14:33:36;4.00;;;2.33;;
10260;SDS011;5175;42.606;23.388;2022-08-01T14:36:05;2.58;;;2.28;;
10260;SDS011;5175;42.606;23.388;2022-08-01T14:38:32;2.10;;;2.00;;
10260;SDS011;5175;42.606;23.388;2022-08-01T14:40:59;2.22;;;2.03;;
10260;SDS011;5175;42.606;23.388;2022-08-01T14:43:27;2.40;;;2.20;;
10260;SDS011;5175;42.606;23.388;2022-08-01T14:45:56;2.95;;;2.10;;
10260;SDS011;5175;42.606;23.388;2022-08-01T14:48:23;3.72;;;2.35;;
10260;SDS011;5175;42.606;23.388;2022-08-01T14:50:50;2.95;;;2.38;;
10260;SDS011;5175;42.606;23.388;2022-08-01T14:53:18;5.30;;;2.58;;
10260;SDS011;5175;42.606;23.388;2022-08-01T14:55:45;3.00;;;2.40;;
10260;SDS011;5175;42.606;23.388;2022-08-01T14:58:12;2.85;;;2.50;;
10260;SDS011;5175;42.606;23.388;2022-08-01T15:00:39;3.58;;;2.72;;
10260;SDS011;5175;42.606;23.388;2022-08-01T15:03:06;3.60;;;2.53;;
10260;SDS011;5175;42.606;23.388;2022-08-01T15:05:32;5.85;;;2.50;;
10260;SDS011;5175;42.606;23.388;2022-08-01T15:08:00;2.70;;;2.22;;
10260;SDS011;5175;42.606;23.388;2022-08-01T15:10:28;2.53;;;2.33;;
10260;SDS011;5175;42.606;23.388;2022-08-01T15:12:57;2.88;;;2.35;;
10260;SDS011;5175;42.606;23.388;2022-08-01T15:15:24;4.43;;;2.28;;